New River MCAS /H/ /Mccutcheon Fld/ Airport
KNCA : now visible

Airfield :











YOU CAN JOIN US ON...

 
LOGIN :

Register | Disclaimer

   EN    FR    IT 

 









Legend :    VFR   Marginal VFR   IFR   Intensive IFR   Very Intensive IFR
Visi :
Ceiling :
>= 8 km
>= 3000ft
5 to 8 km
1000 to 3000 ft
1500m to 5 km
500 to 1000 ft
800 to 1500m
200 to 500 ft
< 800m
< 200 ft
Symbols :   Thunderstorms  Fog  Heavy snow  Heavy precipitations  Wind > 20 kt






- Airport Elevation : 26 ft


KNCA - New River MCAS /H/ /Mccutcheon Fld/

CURRENT METAR :
  • 162356Z 12012KT 10SM FEW090 FEW180 26/19 A3014 RMK AO2 SLP209 T02560189 10300 20256 50000

EXPIRED METARs :
  • 162256Z 15008KT 10SM FEW090 FEW180 27/17 A3015 RMK AO2 SLP212 T02670167
  • 162156Z 13012KT 10SM FEW070 SCT180 27/17 A3014 RMK AO2 SLP210 T02720167
  • 162056Z 16011KT 10SM FEW090 SCT180 28/17 A3014 RMK AO2 SLP209 T02830167 58005
  • 161956Z 15009KT 10SM FEW090 29/17 A3015 RMK AO2 SLP212 T02940167

TAF TAF KNCA
Valid from the 16 at 21:00 until the 17 at 21:00 UTC


1621/1721 13011KT 9999 FEW090 QNH3013INS
TEMPO 1621/1623 12011G20KT
FM170200 VRB06KT 9999 FEW200 QNH3015INS T20/1710Z T30/1718Z
KZDC FIR / North America



MET'MAP, your aeronautical weather chart ! - Copyright ORBIFLY December 2007 - Disclaimer

ORBIFLY MET'MAP TEAM :

Programming & Development : Alexandra Zaïnal
Original concept : Baudouin d'Aumeries
Technical & hardware support : Manuel Goepfert
Assistance : Marc-Olivier Méhu




SOURCES & CREDITS :

   NOAA       Earth
Advisory